Time;durP1;ratioP1;P1;durP2;ratioP2;P2;SDS_P1;SDS_P2;PMS_P1;PMS_P2;Temp;Humidity;BMP_temperature;BMP_pressure;BME280_temperature;BME280_humidity;BME280_pressure;Samples;Min_cycle;Max_cycle;Signal;HPM_P1;HPM_P2
2022/03/25 00:00:12;;;;;;;8.38;5.40;;;9.90;99.90;;;;;;5057585;28;20461;-57
2022/03/25 00:02:39;;;;;;;9.50;5.03;;;9.90;99.90;;;;;;5055407;28;20498;-59
2022/03/25 00:05:07;;;;;;;12.45;5.82;;;9.90;99.90;;;;;;5054858;28;20896;-59
2022/03/25 00:07:35;;;;;;;8.77;5.85;;;9.90;99.90;;;;;;5053768;28;20432;-57
2022/03/25 00:10:02;;;;;;;9.45;4.63;;;9.90;99.90;;;;;;5055064;28;20421;-58
2022/03/25 00:12:31;;;;;;;9.88;5.47;;;9.90;99.90;;;;;;5054452;28;20791;-59
2022/03/25 00:14:58;;;;;;;8.85;6.32;;;9.90;99.90;;;;;;5055007;28;20425;-58
2022/03/25 00:17:25;;;;;;;10.80;5.80;;;9.90;99.90;;;;;;5056697;28;20557;-58
2022/03/25 00:19:52;;;;;;;9.38;5.78;;;9.80;99.90;;;;;;5057833;28;20516;-59
2022/03/25 00:22:19;;;;;;;8.13;4.80;;;9.80;99.90;;;;;;5055927;28;20461;-59
2022/03/25 00:24:46;;;;;;;8.75;5.90;;;9.80;99.90;;;;;;5057035;28;20528;-57
2022/03/25 00:27:14;;;;;;;9.13;5.20;;;9.70;99.90;;;;;;5056964;28;20841;-58
2022/03/25 00:29:42;;;;;;;8.20;5.57;;;9.60;99.90;;;;;;5056456;28;20421;-58
2022/03/25 00:32:09;;;;;;;7.40;4.90;;;9.70;99.90;;;;;;5053995;28;20520;-58
2022/03/25 00:34:36;;;;;;;8.70;5.00;;;9.60;99.90;;;;;;5055093;28;20433;-57
2022/03/25 00:37:04;;;;;;;8.02;6.03;;;9.50;99.90;;;;;;5054067;28;20586;-58
2022/03/25 00:39:31;;;;;;;10.82;5.50;;;9.50;99.90;;;;;;5056086;28;20475;-58
2022/03/25 00:41:58;;;;;;;8.52;5.82;;;9.50;99.90;;;;;;5055510;28;20429;-58
2022/03/25 00:44:24;;;;;;;7.93;5.75;;;9.40;99.90;;;;;;5056790;28;20733;-58
2022/03/25 00:46:53;;;;;;;10.57;5.50;;;9.40;99.90;;;;;;5056024;28;20804;-58
2022/03/25 00:49:20;;;;;;;9.13;6.25;;;9.40;99.90;;;;;;5057169;28;20425;-57
2022/03/25 00:51:47;;;;;;;10.30;6.68;;;9.40;99.90;;;;;;5056700;28;20468;-58
2022/03/25 00:54:14;;;;;;;9.90;6.07;;;9.40;99.90;;;;;;5057000;28;20473;-59
2022/03/25 00:56:41;;;;;;;10.20;5.53;;;9.30;99.90;;;;;;5056014;28;20536;-59
2022/03/25 00:59:09;;;;;;;11.40;6.10;;;9.30;99.90;;;;;;5056058;28;20437;-57
2022/03/25 01:01:36;;;;;;;13.15;4.75;;;9.40;99.90;;;;;;5057393;28;20547;-58
2022/03/25 01:04:05;;;;;;;8.88;5.68;;;9.40;99.90;;;;;;5057242;28;20449;-58
2022/03/25 01:06:32;;;;;;;8.82;6.10;;;9.40;99.90;;;;;;5054647;28;20433;-58
2022/03/25 01:08:59;;;;;;;7.93;5.07;;;9.40;99.90;;;;;;5056315;28;20468;-58
2022/03/25 01:11:26;;;;;;;8.85;5.80;;;9.30;99.90;;;;;;5055506;28;20449;-58
2022/03/25 01:13:53;;;;;;;9.63;5.80;;;9.30;99.90;;;;;;5056744;28;20775;-58
2022/03/25 01:16:20;;;;;;;8.85;5.50;;;9.30;99.90;;;;;;5055927;28;20483;-57
2022/03/25 01:18:47;;;;;;;11.80;5.22;;;9.20;99.90;;;;;;5056328;28;20452;-58
2022/03/25 01:21:17;;;;;;;8.80;5.80;;;9.20;99.90;;;;;;5056865;28;20483;-57
2022/03/25 01:23:44;;;;;;;7.38;4.97;;;9.20;99.90;;;;;;5056412;28;20418;-57
2022/03/25 01:26:11;;;;;;;11.15;5.72;;;9.20;99.90;;;;;;5055206;28;20512;-59
2022/03/25 01:28:38;;;;;;;8.52;5.03;;;9.20;99.90;;;;;;5055774;28;20507;-58
2022/03/25 01:31:09;;;;;;;12.50;5.95;;;9.20;99.90;;;;;;5054050;28;20425;-58
2022/03/25 01:33:37;;;;;;;9.85;5.88;;;9.20;99.90;;;;;;5055749;28;20790;-57
2022/03/25 01:36:04;;;;;;;8.82;5.90;;;9.20;99.90;;;;;;5054327;28;20475;-58
2022/03/25 01:38:33;;;;;;;11.52;5.40;;;9.10;99.90;;;;;;5055092;28;20508;-57
2022/03/25 01:41:00;;;;;;;8.43;4.90;;;9.00;99.90;;;;;;5055269;28;20950;-55
2022/03/25 01:43:27;;;;;;;10.10;6.00;;;9.00;99.90;;;;;;5053806;28;20505;-57
2022/03/25 01:45:55;;;;;;;9.20;5.45;;;9.00;99.90;;;;;;5054135;28;20443;-58
2022/03/25 01:48:23;;;;;;;9.90;5.88;;;9.00;99.90;;;;;;5054124;28;20869;-57
2022/03/25 01:50:50;;;;;;;11.75;6.97;;;9.00;99.90;;;;;;5054980;28;20421;-57
2022/03/25 01:53:19;;;;;;;9.57;7.10;;;8.90;99.90;;;;;;5053768;28;20528;-57
2022/03/25 01:55:52;;;;;;;10.10;6.10;;;8.90;99.90;;;;;;5054610;28;20425;-57
2022/03/25 01:58:21;;;;;;;9.85;5.60;;;8.90;99.90;;;;;;5054754;28;20924;-58
2022/03/25 02:00:55;;;;;;;10.00;5.82;;;8.90;99.90;;;;;;5056059;28;20468;-57
2022/03/25 02:03:22;;;;;;;9.40;5.60;;;8.90;99.90;;;;;;5055799;28;20457;-58
2022/03/25 02:05:50;;;;;;;8.23;5.40;;;8.80;99.90;;;;;;5056355;28;20455;-57
2022/03/25 02:08:17;;;;;;;11.75;5.80;;;8.80;99.90;;;;;;5054560;28;20491;-57
2022/03/25 02:10:45;;;;;;;9.40;5.32;;;8.80;99.90;;;;;;5055072;28;21046;-57
2022/03/25 02:13:13;;;;;;;10.00;5.93;;;8.80;99.90;;;;;;5055000;28;20429;-56
2022/03/25 02:15:42;;;;;;;8.30;4.97;;;8.90;99.90;;;;;;5055637;28;20468;-57
2022/03/25 02:18:10;;;;;;;7.30;5.30;;;8.80;99.90;;;;;;5054838;28;20429;-55
2022/03/25 02:20:38;;;;;;;9.45;5.80;;;8.80;99.90;;;;;;5055704;28;20436;-57
2022/03/25 02:23:07;;;;;;;7.72;5.78;;;8.80;1.00;;;;;;5055286;28;20429;-57
2022/03/25 02:25:34;;;;;;;9.98;5.90;;;8.70;1.00;;;;;;5056011;28;20445;-57
2022/03/25 02:28:04;;;;;;;7.22;4.82;;;8.70;1.00;;;;;;5054917;28;20793;-57
2022/03/25 02:30:32;;;;;;;9.00;6.00;;;8.70;1.00;;;;;;5055109;28;20429;-57
2022/03/25 02:33:01;;;;;;;7.60;5.23;;;8.70;1.00;;;;;;5054421;28;20468;-58
2022/03/25 02:35:39;;;;;;;6.95;5.10;;;8.60;1.00;;;;;;5055482;28;20457;-57
2022/03/25 02:38:08;;;;;;;9.75;6.03;;;8.60;1.00;;;;;;5054820;28;20487;-57
2022/03/25 02:40:35;;;;;;;7.43;5.28;;;8.60;1.00;;;;;;5053895;28;20519;-57
2022/03/25 02:43:02;;;;;;;9.00;5.60;;;8.60;1.00;;;;;;5053150;28;20465;-57
2022/03/25 02:45:29;;;;;;;9.57;5.70;;;8.60;1.00;;;;;;5054704;28;20905;-57
2022/03/25 02:47:56;;;;;;;8.70;5.65;;;8.50;1.00;;;;;;5053032;28;20528;-57
2022/03/25 02:50:25;;;;;;;9.48;5.50;;;8.50;1.00;;;;;;5054355;28;20530;-56
2022/03/25 02:52:51;;;;;;;8.50;5.35;;;8.50;1.00;;;;;;5054072;28;20975;-57
2022/03/25 02:55:20;;;;;;;12.38;5.32;;;8.50;1.00;;;;;;5055246;28;20524;-57
2022/03/25 02:57:47;;;;;;;8.68;5.30;;;8.50;1.00;;;;;;5053847;28;20460;-56
2022/03/25 03:00:14;;;;;;;8.15;5.35;;;8.50;1.00;;;;;;5055066;28;20515;-57
2022/03/25 03:02:41;;;;;;;8.95;6.20;;;8.50;1.00;;;;;;5054830;28;20519;-57
2022/03/25 03:05:08;;;;;;;8.95;5.45;;;8.40;1.00;;;;;;5055075;28;20421;-57
2022/03/25 03:07:36;;;;;;;10.75;6.68;;;8.40;1.00;;;;;;5053947;28;20528;-57
2022/03/25 03:10:04;;;;;;;8.50;5.25;;;8.40;1.00;;;;;;5054529;28;20720;-57
2022/03/25 03:12:35;;;;;;;10.57;5.90;;;8.30;1.00;;;;;;5053803;28;20530;-57
2022/03/25 03:15:03;;;;;;;8.27;4.90;;;8.30;1.00;;;;;;5054405;28;20866;-57
2022/03/25 03:17:30;;;;;;;9.82;5.63;;;8.20;1.00;;;;;;5054480;28;20567;-55
2022/03/25 03:19:57;;;;;;;8.27;5.60;;;8.20;1.00;;;;;;5053597;28;20500;-57
2022/03/25 03:22:24;;;;;;;7.63;4.40;;;8.20;1.00;;;;;;5053328;28;20790;-58
2022/03/25 03:24:51;;;;;;;8.23;5.30;;;8.30;1.00;;;;;;5053311;28;20509;-57
2022/03/25 03:27:18;;;;;;;8.52;5.40;;;8.30;1.00;;;;;;5052239;28;20439;-58
2022/03/25 03:29:46;;;;;;;10.30;6.00;;;8.30;1.00;;;;;;5054386;28;20680;-56
2022/03/25 03:32:14;;;;;;;9.48;5.90;;;8.20;1.00;;;;;;5058931;28;20562;-58
2022/03/25 03:34:40;;;;;;;7.22;4.88;;;8.20;1.00;;;;;;5058149;28;20443;-57
2022/03/25 03:37:07;;;;;;;7.95;5.40;;;8.10;1.00;;;;;;5058590;28;20825;-57
2022/03/25 03:39:34;;;;;;;9.45;5.38;;;8.10;1.00;;;;;;5058225;28;20888;-56
2022/03/25 03:42:03;;;;;;;8.20;5.65;;;8.10;1.00;;;;;;5058438;28;20479;-57
2022/03/25 03:44:29;;;;;;;8.40;5.38;;;8.10;1.00;;;;;;5057387;28;20429;-57
2022/03/25 03:46:58;;;;;;;10.63;6.43;;;8.10;1.00;;;;;;5058097;28;20512;-57
2022/03/25 03:49:25;;;;;;;10.18;5.53;;;8.10;1.00;;;;;;5057985;28;20520;-57
2022/03/25 03:51:52;;;;;;;10.15;5.43;;;8.10;1.00;;;;;;5058392;28;20421;-57
2022/03/25 03:54:18;;;;;;;10.40;5.90;;;8.10;1.00;;;;;;5057850;28;20469;-57
2022/03/25 03:56:45;;;;;;;8.77;5.47;;;8.00;1.00;;;;;;5058550;28;20801;-57
2022/03/25 03:59:12;;;;;;;11.20;5.50;;;7.90;1.00;;;;;;5057920;28;20457;-56
2022/03/25 04:01:39;;;;;;;9.45;6.00;;;7.90;1.00;;;;;;5057680;28;20497;-55
2022/03/25 04:04:08;;;;;;;7.93;5.40;;;7.80;1.00;;;;;;5057744;28;20428;-57
2022/03/25 04:06:35;;;;;;;10.70;6.20;;;7.90;1.00;;;;;;5058285;28;20783;-57
2022/03/25 04:09:02;;;;;;;10.40;5.67;;;7.80;1.00;;;;;;5057651;28;20440;-57
2022/03/25 04:11:29;;;;;;;8.82;5.20;;;7.80;1.00;;;;;;5058478;28;20520;-56
2022/03/25 04:13:56;;;;;;;11.55;6.43;;;7.90;1.00;;;;;;5057571;28;20543;-57
2022/03/25 04:16:23;;;;;;;12.33;6.87;;;7.90;1.00;;;;;;5058142;28;20452;-57
2022/03/25 04:18:50;;;;;;;12.15;6.47;;;7.90;1.00;;;;;;5057794;28;20459;-55
2022/03/25 04:21:19;;;;;;;11.23;6.72;;;7.80;1.00;;;;;;5058088;28;20436;-57
2022/03/25 04:23:45;;;;;;;9.68;6.28;;;7.80;1.00;;;;;;5057760;28;20892;-57
2022/03/25 04:26:12;;;;;;;11.32;6.50;;;7.80;1.00;;;;;;5057942;28;20507;-57
2022/03/25 04:28:39;;;;;;;9.85;6.13;;;7.80;1.00;;;;;;5057442;28;20429;-57
2022/03/25 04:31:06;;;;;;;10.05;5.63;;;7.80;1.00;;;;;;5057973;28;20448;-56
2022/03/25 04:33:34;;;;;;;10.60;6.28;;;7.80;1.00;;;;;;5057253;28;20733;-56
2022/03/25 04:36:01;;;;;;;7.90;5.30;;;7.80;1.00;;;;;;5057644;28;20926;-57
2022/03/25 04:38:30;;;;;;;9.15;5.97;;;7.80;1.00;;;;;;5057342;28;20433;-58
2022/03/25 04:40:57;;;;;;;9.35;6.03;;;7.80;1.00;;;;;;5056769;28;20524;-56
2022/03/25 04:43:24;;;;;;;11.38;5.93;;;7.70;1.00;;;;;;5057143;28;20492;-58
2022/03/25 04:45:51;;;;;;;11.65;5.88;;;7.70;1.00;;;;;;5057423;28;20516;-56
2022/03/25 04:48:18;;;;;;;10.05;6.55;;;7.70;1.00;;;;;;5057074;28;20872;-56
2022/03/25 04:50:45;;;;;;;8.23;5.67;;;7.70;1.00;;;;;;5057389;28;20512;-57
2022/03/25 04:53:12;;;;;;;9.20;5.80;;;7.70;1.00;;;;;;5056734;28;20471;-57
2022/03/25 04:55:40;;;;;;;12.43;6.23;;;7.70;1.00;;;;;;5057046;28;20898;-56
2022/03/25 04:58:07;;;;;;;12.98;6.28;;;7.70;1.00;;;;;;5056744;28;20536;-57
2022/03/25 05:00:35;;;;;;;11.05;6.30;;;7.70;1.00;;;;;;5057274;28;20917;-57
2022/03/25 05:03:02;;;;;;;10.43;6.20;;;7.70;1.00;;;;;;5057526;28;20430;-56
2022/03/25 05:05:28;;;;;;;11.13;5.63;;;7.70;1.00;;;;;;5056988;28;20801;-57
2022/03/25 05:07:55;;;;;;;10.48;6.53;;;7.90;1.00;;;;;;5057089;28;20789;-54
2022/03/25 05:10:22;;;;;;;12.15;5.88;;;7.90;1.00;;;;;;5056587;28;20437;-60
2022/03/25 05:12:51;;;;;;;11.77;6.10;;;7.70;1.00;;;;;;5057059;28;20516;-59
2022/03/25 05:15:18;;;;;;;10.05;6.03;;;7.60;1.00;;;;;;5056618;28;20433;-56
2022/03/25 05:17:46;;;;;;;10.32;5.78;;;7.40;1.00;;;;;;5057098;28;20472;-59
2022/03/25 05:20:15;;;;;;;10.35;6.05;;;7.30;1.00;;;;;;5056905;28;20483;-57
2022/03/25 05:22:42;;;;;;;10.77;6.63;;;7.30;1.00;;;;;;5056573;28;20425;-57
2022/03/25 05:25:10;;;;;;;9.02;5.68;;;7.30;1.00;;;;;;5056499;28;20516;-59
2022/03/25 05:27:44;;;;;;;8.77;5.50;;;7.30;1.00;;;;;;5056694;28;20779;-59
2022/03/25 05:30:13;;;;;;;13.68;7.28;;;7.40;1.00;;;;;;5056215;28;20918;-59
2022/03/25 05:32:41;;;;;;;11.90;6.47;;;7.30;1.00;;;;;;5056774;28;20496;-59
2022/03/25 05:35:10;;;;;;;11.05;7.43;;;7.30;1.00;;;;;;5056150;28;20441;-58
2022/03/25 05:37:37;;;;;;;11.55;6.97;;;7.20;1.00;;;;;;5056238;28;20515;-58
2022/03/25 05:40:05;;;;;;;11.77;6.80;;;7.10;1.00;;;;;;5054895;28;20515;-59
2022/03/25 05:42:32;;;;;;;11.55;7.20;;;7.00;1.00;;;;;;5056418;28;20917;-56
2022/03/25 05:44:59;;;;;;;11.83;6.83;;;7.00;1.00;;;;;;5054062;28;20860;-57
2022/03/25 05:47:28;;;;;;;11.80;6.43;;;7.10;1.00;;;;;;5055943;28;20805;-57
2022/03/25 05:49:55;;;;;;;10.35;5.60;;;7.00;1.00;;;;;;5054999;28;20453;-58
2022/03/25 05:52:21;;;;;;;10.30;6.00;;;7.00;1.00;;;;;;5055434;28;20425;-56
2022/03/25 05:54:49;;;;;;;10.02;6.70;;;7.00;1.00;;;;;;5055316;28;20441;-55
2022/03/25 05:57:16;;;;;;;11.45;7.05;;;7.00;1.00;;;;;;5054677;28;20431;-56
2022/03/25 05:59:43;;;;;;;11.13;6.97;;;7.10;1.00;;;;;;5053448;28;20524;-55
2022/03/25 06:02:10;;;;;;;9.30;5.68;;;7.20;1.00;;;;;;5053985;28;20515;-52
2022/03/25 06:04:38;;;;;;;7.68;4.25;;;7.30;1.00;;;;;;5053155;28;20516;-56
2022/03/25 06:07:05;;;;;;;11.15;5.55;;;7.60;99.90;;;;;;5055037;28;20912;-55
2022/03/25 06:09:33;;;;;;;8.50;4.78;;;8.10;1.00;;;;;;5053448;28;20524;-55
2022/03/25 06:11:59;;;;;;;9.48;5.10;;;8.50;1.00;;;;;;5054693;28;20781;-56
2022/03/25 06:14:26;;;;;;;5.78;4.40;;;8.80;1.00;;;;;;5054730;28;20511;-56
2022/03/25 06:16:53;;;;;;;8.02;5.35;;;8.90;1.00;;;;;;5055089;28;20474;-56
2022/03/25 06:19:21;;;;;;;11.27;7.32;;;8.80;1.00;;;;;;5054969;28;20512;-54
2022/03/25 06:21:49;;;;;;;10.05;6.20;;;8.60;1.00;;;;;;5054578;28;20435;-53
2022/03/25 06:24:16;;;;;;;11.57;7.53;;;8.40;1.00;;;;;;5054468;28;20524;-51
2022/03/25 06:26:43;;;;;;;8.63;6.03;;;8.20;1.00;;;;;;5054910;28;20432;-53
2022/03/25 06:29:10;;;;;;;13.00;7.15;;;8.10;1.00;;;;;;5051987;28;20812;-52
2022/03/25 06:31:36;;;;;;;16.25;7.72;;;8.40;1.00;;;;;;5050777;28;20431;-53
2022/03/25 06:34:04;;;;;;;14.40;7.35;;;8.50;1.00;;;;;;5051738;28;20439;-56
2022/03/25 06:36:31;;;;;;;9.93;7.23;;;8.60;1.00;;;;;;5051885;28;20440;-53
2022/03/25 06:38:59;;;;;;;13.50;7.87;;;8.40;1.00;;;;;;5052271;28;21119;-55
2022/03/25 06:41:26;;;;;;;13.95;8.00;;;8.20;1.00;;;;;;5052009;28;20518;-52
2022/03/25 06:43:54;;;;;;;9.88;7.40;;;8.10;1.00;;;;;;5053303;28;20529;-55
2022/03/25 06:46:21;;;;;;;14.90;8.40;;;8.00;1.00;;;;;;5052835;28;20441;-56
2022/03/25 06:48:48;;;;;;;25.17;14.80;;;8.40;1.00;;;;;;5052855;28;20433;-56
2022/03/25 06:51:16;;;;;;;11.20;8.20;;;8.40;1.00;;;;;;5053799;28;20421;-55
2022/03/25 06:53:44;;;;;;;13.57;8.65;;;8.50;1.00;;;;;;5052077;28;20531;-53
2022/03/25 06:56:13;;;;;;;15.30;8.60;;;8.30;1.00;;;;;;5053641;28;20433;-55
2022/03/25 06:58:41;;;;;;;13.85;7.93;;;8.30;1.00;;;;;;5052495;28;20421;-54
2022/03/25 07:01:08;;;;;;;12.93;7.80;;;8.10;1.00;;;;;;5052756;28;20930;-58
2022/03/25 07:03:35;;;;;;;15.73;9.95;;;8.20;1.00;;;;;;5051946;28;20449;-57
2022/03/25 07:06:04;;;;;;;13.43;8.68;;;8.20;1.00;;;;;;5050482;28;20449;-57
2022/03/25 07:08:31;;;;;;;14.20;8.05;;;8.10;1.00;;;;;;5051262;28;20527;-57
2022/03/25 07:10:59;;;;;;;14.23;9.55;;;8.10;1.00;;;;;;5050326;28;20516;-57
2022/03/25 07:13:28;;;;;;;13.50;8.07;;;8.20;1.00;;;;;;5051052;28;20433;-58
2022/03/25 07:15:55;;;;;;;18.27;9.47;;;8.30;1.00;;;;;;5046156;28;20527;-57
2022/03/25 07:18:22;;;;;;;17.48;9.95;;;8.30;1.00;;;;;;5051641;28;20537;-58
2022/03/25 07:20:49;;;;;;;12.75;8.25;;;8.30;1.00;;;;;;5051269;28;20512;-54
2022/03/25 07:23:16;;;;;;;14.10;8.98;;;8.30;1.00;;;;;;5047319;28;20509;-57
2022/03/25 07:25:43;;;;;;;14.80;9.05;;;8.40;1.00;;;;;;5041703;28;20487;-58
2022/03/25 07:28:09;;;;;;;13.43;8.07;;;8.60;1.00;;;;;;5043387;28;20508;-58
2022/03/25 07:30:38;;;;;;;17.80;8.97;;;8.90;1.00;;;;;;5045258;28;20520;-58
2022/03/25 07:33:05;;;;;;;15.75;9.05;;;9.10;1.00;;;;;;5045775;28;20517;-58
2022/03/25 07:35:32;;;;;;;16.23;9.82;;;9.10;1.00;;;;;;5039406;28;20520;-58
2022/03/25 07:37:59;;;;;;;17.92;10.40;;;9.10;1.00;;;;;;5052076;28;20508;-58
2022/03/25 07:40:26;;;;;;;16.95;10.55;;;9.20;1.00;;;;;;5051357;28;20927;-58
2022/03/25 07:42:53;;;;;;;15.70;10.63;;;9.40;1.00;;;;;;5035322;28;20514;-58
2022/03/25 07:45:19;;;;;;;13.30;8.70;;;9.50;1.00;;;;;;5047268;28;20433;-58
2022/03/25 07:47:50;;;;;;;14.93;9.30;;;9.60;1.00;;;;;;5041168;28;20508;-59
2022/03/25 07:50:18;;;;;;;14.73;10.48;;;9.50;1.00;;;;;;5039137;28;20489;-58
2022/03/25 07:52:46;;;;;;;14.60;9.85;;;9.50;1.00;;;;;;5048083;28;20912;-59
2022/03/25 07:55:15;;;;;;;13.25;8.98;;;9.60;1.00;;;;;;5036045;28;20471;-58
2022/03/25 07:57:42;;;;;;;16.58;11.00;;;9.70;1.00;;;;;;5043190;28;20514;-59
2022/03/25 08:00:12;;;;;;;13.60;9.43;;;9.80;1.00;;;;;;5043165;28;20457;-58
2022/03/25 08:02:39;;;;;;;17.27;10.57;;;10.10;1.00;;;;;;5035412;28;20751;-58
2022/03/25 08:05:10;;;;;;;14.95;10.35;;;10.30;1.00;;;;;;5047230;28;20427;-58
2022/03/25 08:07:44;;;;;;;16.90;9.98;;;10.40;1.00;;;;;;5038463;28;20421;-59
2022/03/25 08:10:11;;;;;;;13.80;9.38;;;10.50;1.00;;;;;;5049164;28;20457;-59
2022/03/25 08:12:39;;;;;;;14.48;10.20;;;10.60;1.00;;;;;;5051137;28;20790;-60
2022/03/25 08:15:07;;;;;;;13.45;9.00;;;10.60;1.00;;;;;;5033330;28;20435;-60
2022/03/25 08:17:46;;;;;;;16.60;10.27;;;10.70;1.00;;;;;;5047405;28;20421;-59
2022/03/25 08:20:19;;;;;;;13.73;9.63;;;10.90;1.00;;;;;;5047421;28;20436;-59
2022/03/25 08:22:46;;;;;;;18.70;11.55;;;11.00;1.00;;;;;;5039147;28;20481;-59
2022/03/25 08:28:00;;;;;;;15.70;11.00;;;11.00;1.00;;;;;;5045224;28;20405;-59
2022/03/25 08:30:27;;;;;;;15.70;10.35;;;10.80;1.00;;;;;;5041386;28;20431;-58
2022/03/25 08:32:54;;;;;;;15.45;9.50;;;10.90;1.00;;;;;;5051703;28;20618;-61
2022/03/25 08:35:23;;;;;;;16.70;10.63;;;10.90;1.00;;;;;;5038215;28;20456;-57
2022/03/25 08:37:50;;;;;;;16.60;10.55;;;11.00;1.00;;;;;;5047919;28;20481;-59
2022/03/25 08:40:17;;;;;;;17.97;10.13;;;11.20;1.00;;;;;;5049039;28;20631;-59
2022/03/25 08:42:44;;;;;;;16.90;11.15;;;11.10;1.00;;;;;;5055925;28;20421;-57
2022/03/25 08:45:13;;;;;;;19.48;10.75;;;11.10;1.00;;;;;;5050095;28;20522;-59
2022/03/25 08:47:40;;;;;;;14.88;9.85;;;11.30;1.00;;;;;;5049766;28;20498;-60
2022/03/25 08:50:09;;;;;;;14.85;10.70;;;11.50;1.00;;;;;;5052725;28;20472;-60
2022/03/25 08:52:38;;;;;;;16.73;10.50;;;11.70;1.00;;;;;;5053035;28;20428;-59
2022/03/25 08:55:06;;;;;;;19.15;10.93;;;11.90;1.00;;;;;;5046258;28;20536;-58
2022/03/25 08:57:33;;;;;;;14.43;9.88;;;12.00;1.00;;;;;;5046832;28;20885;-58
2022/03/25 09:00:00;;;;;;;15.15;9.95;;;12.10;1.00;;;;;;5045004;28;20464;-59
2022/03/25 09:02:27;;;;;;;15.48;9.82;;;12.20;1.00;;;;;;5052504;28;20504;-57
2022/03/25 09:04:54;;;;;;;15.57;10.00;;;12.20;1.00;;;;;;5036999;28;20537;-59
2022/03/25 09:07:20;;;;;;;16.67;10.02;;;12.10;1.00;;;;;;5044818;28;20490;-58
2022/03/25 09:09:50;;;;;;;16.43;11.10;;;12.40;1.00;;;;;;5051876;28;20433;-58
2022/03/25 09:12:17;;;;;;;18.77;10.18;;;12.50;1.00;;;;;;5041597;28;20430;-58
2022/03/25 09:14:44;;;;;;;15.70;11.02;;;12.50;1.00;;;;;;5048651;28;20433;-60
2022/03/25 09:17:11;;;;;;;14.82;9.23;;;12.60;1.00;;;;;;5036544;28;20468;-58
2022/03/25 09:19:38;;;;;;;16.35;9.52;;;12.70;1.00;;;;;;5045730;28;20431;-58
2022/03/25 09:22:06;;;;;;;13.55;9.82;;;13.00;1.00;;;;;;5043782;28;20528;-58
2022/03/25 09:24:32;;;;;;;16.35;8.77;;;13.20;1.00;;;;;;5036656;28;20522;-58
2022/03/25 09:27:01;;;;;;;14.85;9.95;;;13.30;1.00;;;;;;5048309;28;20460;-58
2022/03/25 09:29:27;;;;;;;14.52;9.15;;;13.50;1.00;;;;;;5038064;28;20432;-58
2022/03/25 09:31:55;;;;;;;16.50;10.25;;;13.60;1.00;;;;;;5042451;28;20569;-58
2022/03/25 09:37:06;;;;;;;16.65;11.20;;;13.90;1.00;;;;;;5036224;28;20474;-57
2022/03/25 09:39:34;;;;;;;14.57;11.27;;;14.00;99.90;;;;;;5052099;28;20433;-58
2022/03/25 09:42:04;;;;;;;16.80;11.02;;;13.90;99.90;;;;;;5048992;28;20431;-57
2022/03/25 09:44:33;;;;;;;16.80;10.43;;;14.10;99.90;;;;;;5042413;28;20438;-57
2022/03/25 09:47:00;;;;;;;16.17;11.23;;;14.10;99.90;;;;;;5048174;28;20501;-58
2022/03/25 09:49:28;;;;;;;16.48;11.20;;;14.10;99.90;;;;;;5038686;28;20464;-57
2022/03/25 09:51:55;;;;;;;16.83;10.50;;;14.10;99.90;;;;;;5034312;28;20518;-57
2022/03/25 09:54:22;;;;;;;16.38;10.60;;;14.40;99.90;;;;;;5033753;28;20533;-58
2022/03/25 09:56:49;;;;;;;15.55;10.40;;;14.50;99.90;;;;;;5046166;28;20534;-57
2022/03/25 09:59:21;;;;;;;19.35;12.15;;;14.70;99.90;;;;;;5050844;28;20528;-60
2022/03/25 10:01:48;;;;;;;17.30;11.30;;;14.90;99.90;;;;;;5052436;28;20429;-57
2022/03/25 10:04:40;;;;;;;15.30;11.20;;;15.30;99.90;;;;;;5052703;28;20433;-57
2022/03/25 10:07:16;;;;;;;20.17;12.73;;;15.50;99.90;;;;;;5051068;28;20474;-58
2022/03/25 10:09:43;;;;;;;16.80;10.45;;;15.50;99.90;;;;;;5050560;28;20859;-57
2022/03/25 10:12:23;;;;;;;17.58;11.77;;;15.50;99.90;;;;;;5052118;28;20429;-58
2022/03/25 10:14:53;;;;;;;17.25;12.10;;;15.70;99.90;;;;;;5033327;28;20441;-58
2022/03/25 10:17:20;;;;;;;19.00;11.63;;;15.80;99.90;;;;;;5043147;28;20478;-58
2022/03/25 10:19:49;;;;;;;17.40;10.52;;;15.90;99.90;;;;;;5046884;28;20949;-58
2022/03/25 10:22:18;;;;;;;16.25;11.27;;;16.20;99.90;;;;;;5052201;28;20426;-57
2022/03/25 10:24:47;;;;;;;16.27;11.43;;;16.50;99.90;;;;;;5044170;28;20425;-59
2022/03/25 10:27:17;;;;;;;16.65;11.45;;;16.60;99.90;;;;;;5044899;28;20479;-58
2022/03/25 10:29:46;;;;;;;17.50;11.23;;;16.50;99.90;;;;;;5039324;28;20473;-58
2022/03/25 10:32:18;;;;;;;16.75;11.50;;;16.60;99.90;;;;;;5034979;28;20480;-58
2022/03/25 10:34:45;;;;;;;14.35;9.70;;;16.80;99.90;;;;;;5042201;28;20441;-58
2022/03/25 10:37:14;;;;;;;18.77;13.18;;;17.00;99.90;;;;;;5053028;28;20788;-59
2022/03/25 10:39:51;;;;;;;18.35;11.52;;;17.20;99.90;;;;;;5047477;28;20455;-58
2022/03/25 10:42:19;;;;;;;14.90;11.07;;;17.60;99.90;;;;;;5041121;28;20425;-59
2022/03/25 10:44:46;;;;;;;16.52;11.82;;;17.80;99.90;;;;;;5037529;28;20849;-58
2022/03/25 10:47:28;;;;;;;17.33;11.68;;;18.10;99.90;;;;;;5047909;28;20409;-58
2022/03/25 10:49:57;;;;;;;18.00;11.07;;;18.20;99.90;;;;;;5035859;28;20515;-58
2022/03/25 10:52:30;;;;;;;16.27;11.35;;;18.50;99.90;;;;;;5039583;28;20675;-58
2022/03/25 10:55:15;;;;;;;18.27;11.68;;;18.70;99.90;;;;;;5044943;28;20473;-59
2022/03/25 10:57:52;;;;;;;15.57;10.80;;;18.60;99.90;;;;;;5034984;28;20615;-59
2022/03/25 11:00:19;;;;;;;16.57;11.43;;;18.40;99.90;;;;;;5039462;28;20904;-58
2022/03/25 11:02:48;;;;;;;14.35;10.98;;;18.70;99.90;;;;;;5036385;28;20419;-59
2022/03/25 11:05:15;;;;;;;17.20;11.30;;;18.70;99.90;;;;;;5047249;28;20517;-58
2022/03/25 11:07:44;;;;;;;15.80;10.52;;;18.90;99.90;;;;;;5037234;28;20580;-60
2022/03/25 11:10:13;;;;;;;15.70;11.40;;;18.90;99.90;;;;;;5043734;28;20422;-58
2022/03/25 11:12:43;;;;;;;14.88;9.95;;;18.80;99.90;;;;;;5035408;28;20743;-58
2022/03/25 11:15:12;;;;;;;15.20;10.90;;;19.00;99.90;;;;;;5045590;28;20433;-58
2022/03/25 11:17:41;;;;;;;15.60;10.73;;;19.40;99.90;;;;;;5033072;28;20519;-58
2022/03/25 11:20:11;;;;;;;14.10;11.02;;;19.60;99.90;;;;;;5042817;28;20458;-59
2022/03/25 11:22:43;;;;;;;16.37;10.40;;;19.30;99.90;;;;;;5043585;28;20433;-58
2022/03/25 11:25:13;;;;;;;18.40;11.43;;;19.40;99.90;;;;;;5037363;28;20741;-59
2022/03/25 11:27:45;;;;;;;15.60;10.88;;;19.50;99.90;;;;;;5052322;28;20429;-66
2022/03/25 11:30:14;;;;;;;15.20;11.05;;;19.40;99.90;;;;;;5048759;28;20524;-65
2022/03/25 11:33:02;;;;;;;14.85;10.90;;;19.20;99.90;;;;;;5052361;28;20428;-64
2022/03/25 11:35:32;;;;;;;14.73;11.43;;;19.20;99.90;;;;;;5050461;28;20437;-63
2022/03/25 11:38:20;;;;;;;20.50;14.35;;;19.20;99.90;;;;;;5049895;28;21096;-63
2022/03/25 11:40:48;;;;;;;16.42;10.43;;;19.30;99.90;;;;;;5051054;28;20872;-64
2022/03/25 11:43:17;;;;;;;14.13;10.32;;;19.60;99.90;;;;;;5051099;28;20496;-64
2022/03/25 11:45:45;;;;;;;13.00;9.00;;;19.80;99.90;;;;;;5049822;28;20437;-64
2022/03/25 11:48:35;;;;;;;12.60;9.73;;;20.20;99.90;;;;;;5049398;28;20424;-65
2022/03/25 11:51:18;;;;;;;16.25;9.77;;;20.40;99.90;;;;;;5051648;28;20770;-65
2022/03/25 11:53:46;;;;;;;15.98;11.30;;;20.40;99.90;;;;;;5054580;28;20421;-65
2022/03/25 11:56:13;;;;;;;15.25;10.65;;;20.30;99.90;;;;;;5055237;28;20483;-66
2022/03/25 11:58:58;;;;;;;12.23;9.80;;;20.30;99.90;;;;;;5056073;28;20428;-67
2022/03/25 12:01:25;;;;;;;16.58;11.00;;;20.40;99.90;;;;;;5056462;28;20453;-64
2022/03/25 12:03:54;;;;;;;13.45;9.20;;;20.70;99.90;;;;;;5055740;28;20516;-64
2022/03/25 12:06:24;;;;;;;12.48;8.98;;;20.80;99.90;;;;;;5046705;28;20622;-64
2022/03/25 12:08:59;;;;;;;11.07;8.98;;;20.60;99.90;;;;;;5049380;28;20935;-64
2022/03/25 12:11:49;;;;;;;13.02;10.10;;;20.60;99.90;;;;;;5055466;28;20828;-68
2022/03/25 12:14:17;;;;;;;11.80;8.65;;;20.70;99.90;;;;;;5038446;28;20438;-66
2022/03/25 12:17:07;;;;;;;12.30;8.90;;;20.80;99.90;;;;;;5040873;28;20431;-66
2022/03/25 12:19:48;;;;;;;11.95;10.13;;;21.10;99.90;;;;;;5034813;28;20426;-66
2022/03/25 12:22:34;;;;;;;13.68;9.25;;;20.80;99.90;;;;;;5049189;28;20433;-66
2022/03/25 12:25:14;;;;;;;9.80;7.70;;;20.80;99.90;;;;;;5044920;28;20733;-63
2022/03/25 12:27:42;;;;;;;14.27;9.07;;;20.80;99.90;;;;;;5048519;28;20773;-58
2022/03/25 12:30:10;;;;;;;12.90;8.40;;;21.00;99.90;;;;;;5052854;28;20453;-59
2022/03/25 12:32:38;;;;;;;13.65;10.43;;;20.90;99.90;;;;;;5050421;28;20751;-59
2022/03/25 12:35:07;;;;;;;14.52;10.00;;;21.10;99.90;;;;;;5053354;28;20840;-59
2022/03/25 12:37:48;;;;;;;12.73;9.33;;;20.70;99.90;;;;;;5043207;28;20461;-59
2022/03/25 12:40:17;;;;;;;13.95;9.45;;;20.60;99.90;;;;;;5049370;28;20457;-59
2022/03/25 12:42:48;;;;;;;14.20;10.68;;;20.60;99.90;;;;;;5051798;28;20441;-60
2022/03/25 12:45:15;;;;;;;13.45;10.27;;;20.60;99.90;;;;;;5049141;28;20926;-60
2022/03/25 12:47:45;;;;;;;12.90;9.48;;;20.60;99.90;;;;;;5041830;28;20493;-59
2022/03/25 12:50:16;;;;;;;12.70;9.43;;;20.20;99.90;;;;;;5034410;28;20445;-59
2022/03/25 12:52:45;;;;;;;14.57;9.60;;;20.40;99.90;;;;;;5051771;28;20952;-60
2022/03/25 12:55:16;;;;;;;12.93;8.45;;;20.80;99.90;;;;;;5047939;28;21148;-60
2022/03/25 12:57:45;;;;;;;13.57;8.95;;;21.10;99.90;;;;;;5050560;28;20511;-60
2022/03/25 13:00:13;;;;;;;12.48;10.57;;;21.10;99.90;;;;;;5052865;28;20445;-60